Horseshoe Beach, Florida
Current Conditions -  °F | °C
As of 3:35 AM on Tuesday 21 Oct 2014 (Local Time) from K40J Reporting Station
Moderate Fog Moderate Fog  
Wind Chill: 61°   Ceiling: 500
Heat Index: 61°   Visibility: 0.5mi
Dew Point: 61°   Wind: 0mph
Humidity: 100%   Direction: NA
Pressure: 29.97"   Gusts: NA
Location:  29.44°N, 83.29°W
Report Text: K40J 210735Z AUTO 00000KT 1/2SM FG VV005 16/16 A2997 RMK AO2
Loading
Personal Weather Stations






























Interactive Weather Map
Tropical Storm Tracking
New forecast layout! Learn more

10-Day Weather Forecast

Advertisements
Track Severe Weather on mobile